PGT656 LTFJ-ORBI
Flight info
| Callsign | PGT656 |
|---|---|
| Flight time | 2h 25m |
| Altitude | 27000 |
| Route | VICEN T57 VEVUD/N0444F350 UT341 BAG UL614 KUBER/N0443F370 UL614 OTKEP UM688 RATVO M688 VAXEN |
| Aircraft | A320/M-SDE3FGHIRWY/LB1 |
Departure
| Time | 2026-05-09 18:59 |
|---|---|
| Airport | Istanbul Sabiha Gökçen International Airport (LTFJ) |
Arrival
| Time | 2026-05-09 21:24 |
|---|---|
| Airport | Baghdad International Airport / New Al Muthana Air Base (ORBI) |
| Time | Latitude | Longitude | Altitude | Speed | Heading |
|---|---|---|---|---|---|
| 2026-05-09 18:41 | 40.90602 | 29.31559 | 321 ft | 0 kts | 333° |
| 2026-05-09 18:48 | 40.90584 | 29.31570 | 320 ft | 4 kts | 334° |
| 2026-05-09 18:49 | 40.90560 | 29.31586 | 320 ft | 4 kts | 336° |
| 2026-05-09 18:49 | 40.90535 | 29.31597 | 320 ft | 4 kts | 353° |
| 2026-05-09 18:49 | 40.90511 | 29.31594 | 321 ft | 4 kts | 39° |
| 2026-05-09 18:49 | 40.90503 | 29.31584 | 320 ft | 0 kts | 64° |
| 2026-05-09 18:53 | 40.90515 | 29.31615 | 320 ft | 9 kts | 64° |
| 2026-05-09 18:54 | 40.90557 | 29.31729 | 321 ft | 14 kts | 64° |
| 2026-05-09 18:54 | 40.90606 | 29.31863 | 321 ft | 16 kts | 64° |
| 2026-05-09 18:54 | 40.90617 | 29.31895 | 321 ft | 4 kts | 72° |
| 2026-05-09 18:54 | 40.90595 | 29.31935 | 320 ft | 8 kts | 144° |
| 2026-05-09 18:55 | 40.90527 | 29.31979 | 321 ft | 13 kts | 154° |
| 2026-05-09 18:55 | 40.90497 | 29.32095 | 320 ft | 18 kts | 68° |
| 2026-05-09 18:55 | 40.90551 | 29.32241 | 321 ft | 18 kts | 63° |
| 2026-05-09 18:55 | 40.90587 | 29.32385 | 320 ft | 15 kts | 104° |
| 2026-05-09 18:56 | 40.90522 | 29.32461 | 320 ft | 8 kts | 153° |
| 2026-05-09 18:56 | 40.90517 | 29.32464 | 320 ft | 0 kts | 153° |
| 2026-05-09 18:57 | 40.90497 | 29.32477 | 320 ft | 7 kts | 154° |
| 2026-05-09 18:57 | 40.90445 | 29.32478 | 319 ft | 8 kts | 193° |
| 2026-05-09 18:58 | 40.90409 | 29.32434 | 318 ft | 6 kts | 245° |
| 2026-05-09 18:58 | 40.90367 | 29.32312 | 319 ft | 39 kts | 245° |
| 2026-05-09 18:58 | 40.90140 | 29.31704 | 321 ft | 108 kts | 243° |
| 2026-05-09 18:58 | 40.89720 | 29.30595 | 323 ft | 156 kts | 243° |
| 2026-05-09 18:59 | 40.89195 | 29.29083 | 386 ft | 187 kts | 246° |
| 2026-05-09 18:59 | 40.88724 | 29.27600 | 1251 ft | 182 kts | 249° |
| 2026-05-09 18:59 | 40.88222 | 29.26035 | 2096 ft | 188 kts | 248° |
| 2026-05-09 18:59 | 40.87656 | 29.24409 | 2845 ft | 198 kts | 245° |
| 2026-05-09 19:00 | 40.87054 | 29.22710 | 3517 ft | 209 kts | 245° |
| 2026-05-09 19:00 | 40.85779 | 29.18959 | 4542 ft | 246 kts | 244° |
| 2026-05-09 19:00 | 40.84964 | 29.16970 | 5519 ft | 239 kts | 234° |
| 2026-05-09 19:01 | 40.83767 | 29.15563 | 6592 ft | 235 kts | 209° |
| 2026-05-09 19:01 | 40.82088 | 29.15114 | 6991 ft | 259 kts | 177° |
| 2026-05-09 19:01 | 40.80304 | 29.15833 | 7540 ft | 277 kts | 157° |
| 2026-05-09 19:01 | 40.78649 | 29.17117 | 8518 ft | 273 kts | 150° |
| 2026-05-09 19:02 | 40.77063 | 29.18532 | 9469 ft | 274 kts | 149° |
| 2026-05-09 19:02 | 40.75453 | 29.19922 | 10091 ft | 285 kts | 152° |
| 2026-05-09 19:02 | 40.73752 | 29.21500 | 10340 ft | 311 kts | 143° |
| 2026-05-09 19:02 | 40.72104 | 29.23532 | 10608 ft | 338 kts | 137° |
| 2026-05-09 19:03 | 40.70548 | 29.25938 | 11167 ft | 355 kts | 125° |
| 2026-05-09 19:03 | 40.69570 | 29.28995 | 11860 ft | 367 kts | 103° |
| 2026-05-09 19:03 | 40.69339 | 29.32374 | 12652 ft | 373 kts | 93° |
| 2026-05-09 19:03 | 40.69240 | 29.35807 | 13453 ft | 378 kts | 93° |
| 2026-05-09 19:04 | 40.69161 | 29.39257 | 14120 ft | 382 kts | 92° |
| 2026-05-09 19:04 | 40.69087 | 29.42783 | 14724 ft | 386 kts | 92° |
| 2026-05-09 19:04 | 40.69008 | 29.46371 | 15327 ft | 389 kts | 92° |
| 2026-05-09 19:04 | 40.68923 | 29.49949 | 15935 ft | 392 kts | 92° |
| 2026-05-09 19:05 | 40.68833 | 29.53541 | 16521 ft | 394 kts | 92° |
| 2026-05-09 19:05 | 40.68739 | 29.57133 | 17120 ft | 397 kts | 92° |
| 2026-05-09 19:05 | 40.68642 | 29.60782 | 17706 ft | 400 kts | 92° |
| 2026-05-09 19:05 | 40.68545 | 29.64462 | 18295 ft | 403 kts | 92° |
| 2026-05-09 19:06 | 40.68446 | 29.68162 | 18796 ft | 406 kts | 92° |
| 2026-05-09 19:06 | 40.68342 | 29.71926 | 19287 ft | 408 kts | 92° |
| 2026-05-09 19:06 | 40.68235 | 29.75678 | 19780 ft | 411 kts | 92° |
| 2026-05-09 19:06 | 40.68124 | 29.79466 | 20253 ft | 414 kts | 92° |
| 2026-05-09 19:07 | 40.68012 | 29.83262 | 20727 ft | 417 kts | 92° |
| 2026-05-09 19:07 | 40.67900 | 29.87065 | 21174 ft | 420 kts | 92° |
| 2026-05-09 19:07 | 40.67784 | 29.90936 | 21629 ft | 423 kts | 92° |
| 2026-05-09 19:07 | 40.67671 | 29.94833 | 22072 ft | 426 kts | 92° |
| 2026-05-09 19:08 | 40.67559 | 29.98754 | 22535 ft | 429 kts | 92° |
| 2026-05-09 19:08 | 40.67445 | 30.02640 | 23022 ft | 431 kts | 92° |
| 2026-05-09 19:08 | 40.67321 | 30.06610 | 23452 ft | 434 kts | 92° |
| 2026-05-09 19:08 | 40.67197 | 30.10607 | 23837 ft | 437 kts | 92° |
| 2026-05-09 19:09 | 40.67069 | 30.14605 | 24181 ft | 440 kts | 92° |
| 2026-05-09 19:09 | 40.66939 | 30.18665 | 24542 ft | 442 kts | 92° |
| 2026-05-09 19:09 | 40.66805 | 30.22713 | 24899 ft | 444 kts | 94° |
| 2026-05-09 19:09 | 40.66375 | 30.26745 | 25232 ft | 446 kts | 103° |
| 2026-05-09 19:10 | 40.65436 | 30.30641 | 25583 ft | 447 kts | 114° |
| 2026-05-09 19:10 | 40.64028 | 30.34248 | 25893 ft | 448 kts | 123° |
| 2026-05-09 19:10 | 40.62188 | 30.37563 | 26227 ft | 449 kts | 129° |
| 2026-05-09 19:10 | 40.60260 | 30.40811 | 26555 ft | 451 kts | 129° |
| 2026-05-09 19:11 | 40.58319 | 30.44098 | 26878 ft | 454 kts | 129° |
| 2026-05-09 19:11 | 40.56389 | 30.47382 | 27212 ft | 456 kts | 128° |
| 2026-05-09 19:11 | 40.54598 | 30.50847 | 27518 ft | 459 kts | 120° |
| 2026-05-09 19:11 | 40.53223 | 30.54653 | 27841 ft | 462 kts | 110° |
| 2026-05-09 19:12 | 40.52311 | 30.58707 | 28167 ft | 463 kts | 102° |
| 2026-05-09 19:12 | 40.51585 | 30.62851 | 28489 ft | 466 kts | 102° |
| 2026-05-09 19:12 | 40.50851 | 30.67013 | 28799 ft | 467 kts | 102° |
| 2026-05-09 19:12 | 40.50107 | 30.71175 | 29105 ft | 469 kts | 103° |
| 2026-05-09 19:13 | 40.49343 | 30.75298 | 29407 ft | 471 kts | 104° |
| 2026-05-09 19:13 | 40.48446 | 30.79497 | 29699 ft | 473 kts | 106° |
| 2026-05-09 19:13 | 40.47460 | 30.83647 | 29976 ft | 474 kts | 107° |
| 2026-05-09 19:13 | 40.46441 | 30.87708 | 30233 ft | 476 kts | 108° |
| 2026-05-09 19:14 | 40.45387 | 30.91852 | 30460 ft | 478 kts | 108° |
| 2026-05-09 19:14 | 40.44343 | 30.96014 | 30701 ft | 479 kts | 108° |
| 2026-05-09 19:14 | 40.43325 | 31.00174 | 30981 ft | 479 kts | 107° |
| 2026-05-09 19:14 | 40.42322 | 31.04365 | 31316 ft | 478 kts | 107° |
| 2026-05-09 19:15 | 40.41347 | 31.08495 | 31652 ft | 477 kts | 107° |
| 2026-05-09 19:15 | 40.40362 | 31.12670 | 31971 ft | 476 kts | 107° |
| 2026-05-09 19:15 | 40.39376 | 31.16820 | 32302 ft | 476 kts | 107° |
| 2026-05-09 19:15 | 40.38390 | 31.20952 | 32635 ft | 475 kts | 106° |
| 2026-05-09 19:16 | 40.37608 | 31.25159 | 32947 ft | 473 kts | 101° |
| 2026-05-09 19:16 | 40.36930 | 31.29385 | 33083 ft | 470 kts | 102° |
| 2026-05-09 19:16 | 40.35586 | 31.37646 | 33106 ft | 463 kts | 102° |
| 2026-05-09 19:17 | 40.34236 | 31.45896 | 33112 ft | 462 kts | 102° |
| 2026-05-09 19:17 | 40.32877 | 31.54163 | 33107 ft | 461 kts | 102° |
| 2026-05-09 19:18 | 40.31543 | 31.62331 | 33115 ft | 460 kts | 102° |
| 2026-05-09 19:18 | 40.30185 | 31.70543 | 33115 ft | 460 kts | 102° |
| 2026-05-09 19:19 | 40.28808 | 31.78758 | 33120 ft | 460 kts | 102° |
| 2026-05-09 19:19 | 40.27446 | 31.86893 | 33127 ft | 459 kts | 102° |
| 2026-05-09 19:20 | 40.26026 | 31.95057 | 33124 ft | 459 kts | 104° |
| 2026-05-09 19:20 | 40.24306 | 32.03119 | 33126 ft | 458 kts | 107° |
| 2026-05-09 19:21 | 40.22472 | 32.11110 | 33130 ft | 458 kts | 107° |
| 2026-05-09 19:21 | 40.20683 | 32.19076 | 33128 ft | 457 kts | 106° |
| 2026-05-09 19:22 | 40.18935 | 32.27087 | 33125 ft | 457 kts | 106° |
| 2026-05-09 19:22 | 40.17196 | 32.35110 | 33124 ft | 457 kts | 106° |
| 2026-05-09 19:23 | 40.15457 | 32.43057 | 33127 ft | 457 kts | 106° |
| 2026-05-09 19:23 | 40.13681 | 32.51054 | 33125 ft | 458 kts | 106° |
| 2026-05-09 19:24 | 40.11898 | 32.59059 | 33114 ft | 458 kts | 106° |
| 2026-05-09 19:24 | 40.10110 | 32.67090 | 33127 ft | 459 kts | 106° |
| 2026-05-09 19:25 | 40.08318 | 32.75077 | 33136 ft | 460 kts | 106° |
| 2026-05-09 19:25 | 40.06808 | 32.81725 | 33137 ft | 460 kts | 108° |
| 2026-05-09 19:26 | 40.04279 | 32.90880 | 33143 ft | 459 kts | 112° |
| 2026-05-09 19:26 | 40.02267 | 32.97357 | 33141 ft | 459 kts | 112° |
| 2026-05-09 19:27 | 39.99886 | 33.05088 | 33141 ft | 459 kts | 112° |
| 2026-05-09 19:27 | 39.97586 | 33.12862 | 33138 ft | 459 kts | 111° |
| 2026-05-09 19:28 | 39.95309 | 33.20652 | 33128 ft | 459 kts | 111° |
| 2026-05-09 19:28 | 39.93021 | 33.28388 | 33137 ft | 459 kts | 111° |
| 2026-05-09 19:29 | 39.90698 | 33.36160 | 33133 ft | 458 kts | 112° |
| 2026-05-09 19:29 | 39.88377 | 33.43893 | 33131 ft | 458 kts | 112° |
| 2026-05-09 19:30 | 39.86067 | 33.51581 | 33128 ft | 458 kts | 112° |
| 2026-05-09 19:30 | 39.83740 | 33.59300 | 33121 ft | 458 kts | 111° |
| 2026-05-09 19:31 | 39.81972 | 33.67248 | 33123 ft | 458 kts | 105° |
| 2026-05-09 19:31 | 39.80359 | 33.75261 | 33114 ft | 457 kts | 105° |
| 2026-05-09 19:32 | 39.78728 | 33.83224 | 33112 ft | 457 kts | 105° |
| 2026-05-09 19:32 | 39.76922 | 33.91154 | 33109 ft | 457 kts | 110° |
| 2026-05-09 19:33 | 39.74730 | 33.98925 | 33110 ft | 457 kts | 111° |
| 2026-05-09 19:33 | 39.72538 | 34.06645 | 33104 ft | 457 kts | 111° |
| 2026-05-09 19:34 | 39.70336 | 34.14399 | 33109 ft | 457 kts | 111° |
| 2026-05-09 19:34 | 39.68152 | 34.22043 | 33113 ft | 457 kts | 111° |
| 2026-05-09 19:35 | 39.65940 | 34.29780 | 33115 ft | 457 kts | 111° |
| 2026-05-09 19:35 | 39.63727 | 34.37513 | 33114 ft | 457 kts | 111° |
| 2026-05-09 19:36 | 39.61510 | 34.45213 | 33113 ft | 457 kts | 111° |
| 2026-05-09 19:36 | 39.59295 | 34.52886 | 33113 ft | 457 kts | 111° |
| 2026-05-09 19:37 | 39.57061 | 34.60593 | 33107 ft | 456 kts | 111° |
| 2026-05-09 19:37 | 39.54818 | 34.68314 | 33107 ft | 456 kts | 111° |
| 2026-05-09 19:38 | 39.52590 | 34.75986 | 33112 ft | 457 kts | 111° |
| 2026-05-09 19:38 | 39.50347 | 34.83685 | 33111 ft | 457 kts | 111° |
| 2026-05-09 19:39 | 39.48077 | 34.91431 | 33100 ft | 457 kts | 112° |
| 2026-05-09 19:39 | 39.45836 | 34.99067 | 33103 ft | 457 kts | 112° |
| 2026-05-09 19:40 | 39.43559 | 35.06783 | 33108 ft | 457 kts | 112° |
| 2026-05-09 19:40 | 39.41315 | 35.14370 | 33103 ft | 457 kts | 112° |
| 2026-05-09 19:41 | 39.39040 | 35.22089 | 33104 ft | 458 kts | 112° |
| 2026-05-09 19:41 | 39.36816 | 35.29801 | 33103 ft | 458 kts | 111° |
| 2026-05-09 19:42 | 39.34593 | 35.37528 | 33106 ft | 458 kts | 112° |
| 2026-05-09 19:42 | 39.32341 | 35.45271 | 33101 ft | 459 kts | 112° |
| 2026-05-09 19:43 | 39.30092 | 35.52983 | 33101 ft | 459 kts | 112° |
| 2026-05-09 19:43 | 39.27839 | 35.60681 | 33107 ft | 460 kts | 112° |
| 2026-05-09 19:44 | 39.25571 | 35.68397 | 33108 ft | 460 kts | 113° |
| 2026-05-09 19:44 | 39.23300 | 35.76113 | 33117 ft | 461 kts | 113° |
| 2026-05-09 19:45 | 39.21014 | 35.83862 | 33118 ft | 461 kts | 113° |
| 2026-05-09 19:45 | 39.18722 | 35.91597 | 33119 ft | 461 kts | 113° |
| 2026-05-09 19:46 | 39.16443 | 35.99270 | 33118 ft | 462 kts | 113° |
| 2026-05-09 19:46 | 39.14827 | 36.07254 | 33128 ft | 464 kts | 100° |
| 2026-05-09 19:47 | 39.13806 | 36.15498 | 33125 ft | 465 kts | 101° |
| 2026-05-09 19:47 | 39.12762 | 36.23727 | 33126 ft | 465 kts | 101° |
| 2026-05-09 19:48 | 39.11708 | 36.31901 | 33124 ft | 465 kts | 101° |
| 2026-05-09 19:48 | 39.10642 | 36.40133 | 33131 ft | 465 kts | 101° |
| 2026-05-09 19:49 | 39.09588 | 36.48318 | 33126 ft | 465 kts | 101° |
| 2026-05-09 19:49 | 39.08520 | 36.56541 | 33115 ft | 465 kts | 101° |
| 2026-05-09 19:50 | 39.07448 | 36.64765 | 33112 ft | 466 kts | 101° |
| 2026-05-09 19:50 | 39.06375 | 36.72983 | 33122 ft | 467 kts | 101° |
| 2026-05-09 19:51 | 39.05282 | 36.81224 | 33124 ft | 467 kts | 101° |
| 2026-05-09 19:51 | 39.04180 | 36.89477 | 33109 ft | 467 kts | 101° |
| 2026-05-09 19:52 | 39.03087 | 36.97672 | 33117 ft | 468 kts | 101° |
| 2026-05-09 19:52 | 39.01980 | 37.05927 | 33119 ft | 468 kts | 101° |
| 2026-05-09 19:53 | 39.00858 | 37.14202 | 33121 ft | 468 kts | 101° |
| 2026-05-09 19:53 | 38.99736 | 37.22419 | 33116 ft | 468 kts | 102° |
| 2026-05-09 19:54 | 38.98606 | 37.30715 | 33119 ft | 469 kts | 101° |
| 2026-05-09 19:54 | 38.97486 | 37.38908 | 33117 ft | 469 kts | 102° |
| 2026-05-09 19:55 | 38.96348 | 37.47179 | 33118 ft | 469 kts | 102° |
| 2026-05-09 19:56 | 38.94629 | 37.59527 | 33105 ft | 470 kts | 102° |
| 2026-05-09 19:56 | 38.93461 | 37.67822 | 33112 ft | 471 kts | 102° |
| 2026-05-09 19:57 | 38.92294 | 37.76119 | 33114 ft | 472 kts | 102° |
| 2026-05-09 19:57 | 38.91128 | 37.84382 | 33109 ft | 472 kts | 102° |
| 2026-05-09 19:58 | 38.89945 | 37.92709 | 33110 ft | 473 kts | 102° |
| 2026-05-09 19:58 | 38.88750 | 38.01037 | 33110 ft | 474 kts | 102° |
| 2026-05-09 19:59 | 38.87551 | 38.09369 | 33114 ft | 474 kts | 102° |
| 2026-05-09 19:59 | 38.86552 | 38.16303 | 33106 ft | 474 kts | 102° |
| 2026-05-09 20:00 | 38.85355 | 38.24593 | 33105 ft | 474 kts | 102° |
| 2026-05-09 20:00 | 38.84142 | 38.32914 | 33109 ft | 475 kts | 102° |
| 2026-05-09 20:01 | 38.82916 | 38.41257 | 33109 ft | 476 kts | 102° |
| 2026-05-09 20:01 | 38.81682 | 38.49592 | 33106 ft | 476 kts | 102° |
| 2026-05-09 20:02 | 38.80447 | 38.57939 | 33104 ft | 478 kts | 102° |
| 2026-05-09 20:02 | 38.79205 | 38.66322 | 33105 ft | 478 kts | 102° |
| 2026-05-09 20:03 | 38.77314 | 38.78962 | 33117 ft | 479 kts | 102° |
| 2026-05-09 20:03 | 38.76054 | 38.87312 | 33106 ft | 480 kts | 102° |
| 2026-05-09 20:04 | 38.74785 | 38.95730 | 33109 ft | 480 kts | 102° |
| 2026-05-09 20:04 | 38.73539 | 39.04152 | 33112 ft | 480 kts | 102° |
| 2026-05-09 20:05 | 38.72298 | 39.12578 | 33107 ft | 481 kts | 102° |
| 2026-05-09 20:05 | 38.71031 | 39.20993 | 33111 ft | 480 kts | 104° |
| 2026-05-09 20:06 | 38.68898 | 39.29088 | 33117 ft | 479 kts | 112° |
| 2026-05-09 20:06 | 38.66553 | 39.37088 | 33142 ft | 480 kts | 112° |
| 2026-05-09 20:07 | 38.64235 | 39.45051 | 33123 ft | 481 kts | 112° |
| 2026-05-09 20:07 | 38.61891 | 39.53075 | 33125 ft | 481 kts | 112° |
| 2026-05-09 20:08 | 38.58408 | 39.65144 | 33131 ft | 481 kts | 112° |
| 2026-05-09 20:09 | 38.56107 | 39.73129 | 33128 ft | 482 kts | 112° |
| 2026-05-09 20:09 | 38.53773 | 39.81167 | 33137 ft | 482 kts | 112° |
| 2026-05-09 20:10 | 38.51438 | 39.89206 | 33134 ft | 482 kts | 112° |
| 2026-05-09 20:10 | 38.49105 | 39.97214 | 33126 ft | 483 kts | 112° |
| 2026-05-09 20:11 | 38.46757 | 40.05246 | 33139 ft | 484 kts | 112° |
| 2026-05-09 20:11 | 38.44405 | 40.13279 | 33139 ft | 484 kts | 112° |
| 2026-05-09 20:12 | 38.42028 | 40.21355 | 33128 ft | 484 kts | 112° |
| 2026-05-09 20:12 | 38.39664 | 40.29351 | 33140 ft | 485 kts | 112° |
| 2026-05-09 20:13 | 38.37278 | 40.37390 | 33142 ft | 485 kts | 112° |
| 2026-05-09 20:13 | 38.34879 | 40.45452 | 33134 ft | 485 kts | 112° |
| 2026-05-09 20:14 | 38.32494 | 40.53480 | 33131 ft | 486 kts | 112° |
| 2026-05-09 20:14 | 38.30103 | 40.61529 | 33124 ft | 487 kts | 112° |
| 2026-05-09 20:15 | 38.27689 | 40.69584 | 33132 ft | 487 kts | 113° |
| 2026-05-09 20:15 | 38.25259 | 40.77637 | 33121 ft | 488 kts | 113° |
| 2026-05-09 20:16 | 38.22826 | 40.85650 | 33116 ft | 488 kts | 113° |
| 2026-05-09 20:16 | 38.20312 | 40.93761 | 33117 ft | 489 kts | 114° |
| 2026-05-09 20:17 | 38.17802 | 41.01785 | 33108 ft | 490 kts | 113° |
| 2026-05-09 20:17 | 38.15275 | 41.09857 | 33105 ft | 490 kts | 114° |
| 2026-05-09 20:18 | 38.12774 | 41.17874 | 33111 ft | 491 kts | 113° |
| 2026-05-09 20:18 | 38.10302 | 41.25980 | 33113 ft | 492 kts | 112° |
| 2026-05-09 20:19 | 38.07833 | 41.34097 | 33115 ft | 492 kts | 113° |
| 2026-05-09 20:19 | 38.05349 | 41.42195 | 33120 ft | 492 kts | 113° |
| 2026-05-09 20:20 | 38.02853 | 41.50258 | 33114 ft | 492 kts | 113° |
| 2026-05-09 20:20 | 38.00346 | 41.58342 | 33128 ft | 493 kts | 113° |
| 2026-05-09 20:21 | 37.97829 | 41.66452 | 33135 ft | 493 kts | 113° |
| 2026-05-09 20:21 | 37.95316 | 41.74543 | 33131 ft | 493 kts | 113° |
| 2026-05-09 20:22 | 37.92805 | 41.82605 | 33128 ft | 493 kts | 113° |
| 2026-05-09 20:22 | 37.90932 | 41.90967 | 33135 ft | 495 kts | 97° |
| 2026-05-09 20:23 | 37.90348 | 41.99674 | 33156 ft | 495 kts | 94° |
| 2026-05-09 20:23 | 37.89802 | 42.08349 | 33156 ft | 496 kts | 94° |
| 2026-05-09 20:24 | 37.89235 | 42.17045 | 33192 ft | 495 kts | 94° |
| 2026-05-09 20:24 | 37.88657 | 42.25747 | 33200 ft | 495 kts | 94° |
| 2026-05-09 20:25 | 37.88077 | 42.34382 | 33196 ft | 494 kts | 95° |
| 2026-05-09 20:25 | 37.87495 | 42.43050 | 33191 ft | 494 kts | 94° |
| 2026-05-09 20:26 | 37.86904 | 42.51743 | 33193 ft | 494 kts | 95° |
| 2026-05-09 20:26 | 37.86271 | 42.60379 | 33197 ft | 494 kts | 98° |
| 2026-05-09 20:27 | 37.84412 | 42.68703 | 33235 ft | 491 kts | 116° |
| 2026-05-09 20:27 | 37.81052 | 42.76184 | 33229 ft | 488 kts | 123° |
| 2026-05-09 20:28 | 37.77524 | 42.83546 | 33221 ft | 488 kts | 124° |
| 2026-05-09 20:28 | 37.74036 | 42.90843 | 33227 ft | 488 kts | 124° |
| 2026-05-09 20:29 | 37.68773 | 43.01823 | 33231 ft | 488 kts | 124° |
| 2026-05-09 20:29 | 37.65217 | 43.09210 | 33238 ft | 488 kts | 124° |
| 2026-05-09 20:30 | 37.61696 | 43.16488 | 33237 ft | 489 kts | 124° |
| 2026-05-09 20:30 | 37.58139 | 43.23823 | 33242 ft | 490 kts | 124° |
| 2026-05-09 20:31 | 37.54595 | 43.31128 | 33220 ft | 490 kts | 124° |
| 2026-05-09 20:31 | 37.51034 | 43.38461 | 33218 ft | 490 kts | 124° |
| 2026-05-09 20:32 | 37.47457 | 43.45810 | 33214 ft | 491 kts | 124° |
| 2026-05-09 20:32 | 37.43881 | 43.53148 | 33215 ft | 493 kts | 124° |
| 2026-05-09 20:33 | 37.40280 | 43.60503 | 33193 ft | 493 kts | 125° |
| 2026-05-09 20:33 | 37.36679 | 43.67827 | 33189 ft | 494 kts | 125° |
| 2026-05-09 20:34 | 37.33652 | 43.73982 | 33192 ft | 494 kts | 125° |
| 2026-05-09 20:34 | 37.30033 | 43.81330 | 33200 ft | 495 kts | 125° |
| 2026-05-09 20:35 | 37.26245 | 43.88470 | 33189 ft | 490 kts | 135° |
| 2026-05-09 20:35 | 37.21183 | 43.94084 | 33179 ft | 475 kts | 154° |
| 2026-05-09 20:36 | 37.15359 | 43.97515 | 33170 ft | 463 kts | 167° |
| 2026-05-09 20:36 | 37.09286 | 44.00333 | 33160 ft | 463 kts | 167° |
| 2026-05-09 20:37 | 37.03243 | 44.03149 | 33139 ft | 464 kts | 167° |
| 2026-05-09 20:37 | 36.97178 | 44.05970 | 33132 ft | 464 kts | 167° |
| 2026-05-09 20:38 | 36.91136 | 44.08778 | 33130 ft | 464 kts | 167° |
| 2026-05-09 20:38 | 36.85088 | 44.11581 | 33133 ft | 463 kts | 167° |
| 2026-05-09 20:39 | 36.79022 | 44.14381 | 33128 ft | 464 kts | 167° |
| 2026-05-09 20:39 | 36.72974 | 44.17166 | 33104 ft | 463 kts | 167° |
| 2026-05-09 20:40 | 36.66916 | 44.19958 | 33118 ft | 463 kts | 167° |
| 2026-05-09 20:40 | 36.60913 | 44.22718 | 33122 ft | 462 kts | 167° |
| 2026-05-09 20:41 | 36.54871 | 44.25493 | 33107 ft | 461 kts | 167° |
| 2026-05-09 20:41 | 36.48833 | 44.28261 | 33098 ft | 461 kts | 167° |
| 2026-05-09 20:42 | 36.42821 | 44.31005 | 33110 ft | 460 kts | 167° |
| 2026-05-09 20:42 | 36.36788 | 44.33756 | 33102 ft | 460 kts | 167° |
| 2026-05-09 20:43 | 36.30792 | 44.36491 | 33109 ft | 460 kts | 167° |
| 2026-05-09 20:43 | 36.24772 | 44.39236 | 33085 ft | 460 kts | 167° |
| 2026-05-09 20:44 | 36.18727 | 44.41984 | 33088 ft | 460 kts | 167° |
| 2026-05-09 20:44 | 36.12741 | 44.44703 | 33095 ft | 461 kts | 167° |
| 2026-05-09 20:45 | 36.06745 | 44.47417 | 33088 ft | 461 kts | 167° |
| 2026-05-09 20:45 | 36.00707 | 44.50139 | 33077 ft | 461 kts | 167° |
| 2026-05-09 20:46 | 35.94710 | 44.52849 | 33082 ft | 461 kts | 167° |
| 2026-05-09 20:46 | 35.88663 | 44.55581 | 33090 ft | 461 kts | 167° |
| 2026-05-09 20:47 | 35.82643 | 44.58286 | 33094 ft | 461 kts | 167° |
| 2026-05-09 20:47 | 35.76641 | 44.60981 | 33077 ft | 461 kts | 167° |
| 2026-05-09 20:48 | 35.70597 | 44.63695 | 33086 ft | 461 kts | 167° |
| 2026-05-09 20:48 | 35.64570 | 44.66391 | 33091 ft | 460 kts | 167° |
| 2026-05-09 20:49 | 35.58579 | 44.69062 | 33077 ft | 460 kts | 167° |
| 2026-05-09 20:49 | 35.52552 | 44.71757 | 33078 ft | 460 kts | 167° |
| 2026-05-09 20:50 | 35.46526 | 44.74448 | 33078 ft | 459 kts | 167° |
| 2026-05-09 20:50 | 35.40525 | 44.77117 | 33071 ft | 459 kts | 167° |
| 2026-05-09 20:51 | 35.34504 | 44.79784 | 33061 ft | 459 kts | 167° |
| 2026-05-09 20:51 | 35.28533 | 44.82427 | 33064 ft | 459 kts | 167° |
| 2026-05-09 20:52 | 35.22508 | 44.85097 | 33067 ft | 458 kts | 167° |
| 2026-05-09 20:52 | 35.16536 | 44.87745 | 33063 ft | 458 kts | 167° |
| 2026-05-09 20:53 | 35.10531 | 44.90399 | 33068 ft | 459 kts | 167° |
| 2026-05-09 20:53 | 35.04527 | 44.93044 | 33062 ft | 459 kts | 167° |
| 2026-05-09 20:54 | 34.98544 | 44.95676 | 33051 ft | 458 kts | 167° |
| 2026-05-09 20:54 | 34.92532 | 44.98318 | 33054 ft | 458 kts | 167° |
| 2026-05-09 20:55 | 34.86520 | 45.00956 | 33022 ft | 458 kts | 167° |
| 2026-05-09 20:55 | 34.80537 | 45.03577 | 33035 ft | 458 kts | 167° |
| 2026-05-09 20:56 | 34.71510 | 45.07522 | 33006 ft | 458 kts | 167° |
| 2026-05-09 20:57 | 34.65521 | 45.10134 | 33018 ft | 458 kts | 167° |
| 2026-05-09 20:57 | 34.59505 | 45.12754 | 32999 ft | 458 kts | 167° |
| 2026-05-09 20:58 | 34.53498 | 45.15368 | 33011 ft | 458 kts | 167° |
| 2026-05-09 20:58 | 34.47447 | 45.17069 | 33017 ft | 442 kts | 184° |
| 2026-05-09 20:59 | 34.41327 | 45.17479 | 32995 ft | 440 kts | 184° |
| 2026-05-09 20:59 | 34.35207 | 45.17901 | 33009 ft | 440 kts | 184° |
| 2026-05-09 21:00 | 34.26070 | 45.18527 | 33017 ft | 439 kts | 184° |
| 2026-05-09 21:00 | 34.19974 | 45.18946 | 33006 ft | 439 kts | 184° |
| 2026-05-09 21:01 | 34.13860 | 45.19365 | 33024 ft | 439 kts | 185° |
| 2026-05-09 21:02 | 34.04622 | 45.19984 | 31756 ft | 445 kts | 184° |
| 2026-05-09 21:02 | 34.01561 | 45.20194 | 31197 ft | 440 kts | 184° |
| 2026-05-09 21:02 | 33.98543 | 45.20403 | 30626 ft | 437 kts | 184° |
| 2026-05-09 21:02 | 33.95509 | 45.20612 | 30055 ft | 434 kts | 184° |
| 2026-05-09 21:03 | 33.92502 | 45.20816 | 29436 ft | 431 kts | 184° |
| 2026-05-09 21:03 | 33.89526 | 45.21018 | 28886 ft | 426 kts | 184° |
| 2026-05-09 21:03 | 33.86574 | 45.21221 | 28348 ft | 421 kts | 183° |
| 2026-05-09 21:03 | 33.83656 | 45.21419 | 27805 ft | 417 kts | 183° |
| 2026-05-09 21:04 | 33.80766 | 45.21613 | 27283 ft | 413 kts | 183° |
| 2026-05-09 21:04 | 33.77909 | 45.21802 | 26765 ft | 409 kts | 183° |
| 2026-05-09 21:04 | 33.75068 | 45.21992 | 26261 ft | 405 kts | 183° |
| 2026-05-09 21:04 | 33.72275 | 45.22181 | 25776 ft | 401 kts | 183° |
| 2026-05-09 21:05 | 33.69505 | 45.22369 | 25308 ft | 397 kts | 182° |
| 2026-05-09 21:05 | 33.66779 | 45.22552 | 24850 ft | 393 kts | 182° |
| 2026-05-09 21:05 | 33.64012 | 45.22736 | 24377 ft | 390 kts | 182° |
| 2026-05-09 21:05 | 33.61315 | 45.22914 | 23916 ft | 387 kts | 182° |
| 2026-05-09 21:06 | 33.58633 | 45.23093 | 23425 ft | 384 kts | 182° |
| 2026-05-09 21:06 | 33.56005 | 45.23271 | 22941 ft | 381 kts | 182° |
| 2026-05-09 21:06 | 33.53367 | 45.23450 | 22480 ft | 377 kts | 182° |
| 2026-05-09 21:06 | 33.50753 | 45.23625 | 22010 ft | 374 kts | 182° |
| 2026-05-09 21:07 | 33.48162 | 45.23794 | 21555 ft | 371 kts | 182° |
| 2026-05-09 21:07 | 33.45599 | 45.23962 | 21106 ft | 369 kts | 182° |
| 2026-05-09 21:07 | 33.43037 | 45.24130 | 20628 ft | 367 kts | 181° |
| 2026-05-09 21:07 | 33.40497 | 45.24299 | 20157 ft | 366 kts | 181° |
| 2026-05-09 21:08 | 33.37947 | 45.24469 | 19688 ft | 365 kts | 181° |
| 2026-05-09 21:08 | 33.36234 | 45.24584 | 19374 ft | 365 kts | 181° |
| 2026-05-09 21:08 | 33.33731 | 45.24592 | 18893 ft | 360 kts | 190° |
| 2026-05-09 21:08 | 33.31258 | 45.24190 | 18439 ft | 358 kts | 193° |
| 2026-05-09 21:09 | 33.28819 | 45.23672 | 17984 ft | 352 kts | 200° |
| 2026-05-09 21:09 | 33.26618 | 45.22463 | 17539 ft | 343 kts | 214° |
| 2026-05-09 21:09 | 33.24573 | 45.21011 | 17062 ft | 341 kts | 215° |
| 2026-05-09 21:09 | 33.22537 | 45.19545 | 16602 ft | 340 kts | 215° |
| 2026-05-09 21:10 | 33.20520 | 45.18092 | 16159 ft | 338 kts | 216° |
| 2026-05-09 21:10 | 33.18637 | 45.16500 | 15736 ft | 335 kts | 219° |
| 2026-05-09 21:10 | 33.16713 | 45.14928 | 15316 ft | 334 kts | 219° |
| 2026-05-09 21:10 | 33.14925 | 45.13175 | 14897 ft | 330 kts | 226° |
| 2026-05-09 21:11 | 33.13235 | 45.11326 | 14490 ft | 329 kts | 226° |
| 2026-05-09 21:12 | 33.08778 | 45.02671 | 12837 ft | 307 kts | 271° |
| 2026-05-09 21:12 | 33.08737 | 45.00119 | 12391 ft | 307 kts | 271° |
| 2026-05-09 21:12 | 33.08698 | 44.97609 | 11981 ft | 305 kts | 272° |
| 2026-05-09 21:12 | 33.08655 | 44.95081 | 11585 ft | 304 kts | 272° |
| 2026-05-09 21:13 | 33.08611 | 44.92574 | 11192 ft | 302 kts | 272° |
| 2026-05-09 21:13 | 33.08566 | 44.90071 | 10789 ft | 300 kts | 272° |
| 2026-05-09 21:13 | 33.08520 | 44.87597 | 10478 ft | 300 kts | 272° |
| 2026-05-09 21:13 | 33.08474 | 44.85088 | 10241 ft | 300 kts | 272° |
| 2026-05-09 21:14 | 33.08428 | 44.82614 | 10009 ft | 300 kts | 273° |
| 2026-05-09 21:14 | 33.08378 | 44.80157 | 9848 ft | 290 kts | 273° |
| 2026-05-09 21:14 | 33.08329 | 44.77864 | 9712 ft | 279 kts | 273° |
| 2026-05-09 21:14 | 33.08281 | 44.75492 | 9582 ft | 275 kts | 273° |
| 2026-05-09 21:15 | 33.08238 | 44.73245 | 9448 ft | 274 kts | 273° |
| 2026-05-09 21:15 | 33.08196 | 44.70969 | 9319 ft | 274 kts | 273° |
| 2026-05-09 21:15 | 33.08155 | 44.68701 | 9076 ft | 275 kts | 273° |
| 2026-05-09 21:15 | 33.08112 | 44.66406 | 8615 ft | 276 kts | 273° |
| 2026-05-09 21:16 | 33.08066 | 44.64133 | 8268 ft | 274 kts | 273° |
| 2026-05-09 21:16 | 33.08020 | 44.61852 | 7858 ft | 273 kts | 273° |
| 2026-05-09 21:16 | 33.07973 | 44.59590 | 7446 ft | 273 kts | 273° |
| 2026-05-09 21:16 | 33.07925 | 44.57304 | 7039 ft | 272 kts | 273° |
| 2026-05-09 21:17 | 33.07880 | 44.55097 | 6507 ft | 269 kts | 273° |
| 2026-05-09 21:17 | 33.07834 | 44.52872 | 5854 ft | 267 kts | 273° |
| 2026-05-09 21:17 | 33.07790 | 44.50661 | 5214 ft | 264 kts | 273° |
| 2026-05-09 21:17 | 33.07743 | 44.48535 | 4898 ft | 250 kts | 272° |
| 2026-05-09 21:18 | 33.07693 | 44.46534 | 4721 ft | 231 kts | 273° |
| 2026-05-09 21:18 | 33.07646 | 44.44690 | 4616 ft | 217 kts | 273° |
| 2026-05-09 21:18 | 33.07604 | 44.42910 | 4562 ft | 211 kts | 274° |
| 2026-05-09 21:18 | 33.07568 | 44.41160 | 4512 ft | 210 kts | 273° |
| 2026-05-09 21:19 | 33.08851 | 44.36583 | 3948 ft | 193 kts | 320° |
| 2026-05-09 21:19 | 33.09979 | 44.35715 | 3530 ft | 195 kts | 331° |
| 2026-05-09 21:20 | 33.11139 | 44.34923 | 3231 ft | 187 kts | 331° |
| 2026-05-09 21:20 | 33.12240 | 44.34171 | 2981 ft | 178 kts | 331° |
| 2026-05-09 21:20 | 33.13299 | 44.33448 | 2759 ft | 175 kts | 331° |
| 2026-05-09 21:20 | 33.14331 | 44.32742 | 2531 ft | 166 kts | 330° |
| 2026-05-09 21:21 | 33.15330 | 44.32059 | 2325 ft | 164 kts | 331° |
| 2026-05-09 21:21 | 33.16297 | 44.31397 | 2122 ft | 157 kts | 330° |
| 2026-05-09 21:21 | 33.17207 | 44.30774 | 1923 ft | 146 kts | 331° |
| 2026-05-09 21:21 | 33.18080 | 44.30178 | 1745 ft | 143 kts | 331° |
| 2026-05-09 21:22 | 33.18920 | 44.29603 | 1554 ft | 142 kts | 331° |
| 2026-05-09 21:22 | 33.19779 | 44.29015 | 1372 ft | 142 kts | 331° |
| 2026-05-09 21:22 | 33.20657 | 44.28414 | 1191 ft | 142 kts | 330° |
| 2026-05-09 21:22 | 33.21504 | 44.27834 | 1009 ft | 143 kts | 330° |
| 2026-05-09 21:23 | 33.22371 | 44.27239 | 827 ft | 144 kts | 329° |
| 2026-05-09 21:23 | 33.23242 | 44.26638 | 637 ft | 145 kts | 329° |
| 2026-05-09 21:23 | 33.24121 | 44.26037 | 438 ft | 146 kts | 329° |
| 2026-05-09 21:23 | 33.25002 | 44.25436 | 222 ft | 145 kts | 328° |
| 2026-05-09 21:24 | 33.25846 | 44.24853 | 148 ft | 135 kts | 329° |
| 2026-05-09 21:24 | 33.26495 | 44.24399 | 139 ft | 69 kts | 330° |
| 2026-05-09 21:24 | 33.26819 | 44.24174 | 142 ft | 34 kts | 329° |
| 2026-05-09 21:24 | 33.27010 | 44.24040 | 140 ft | 30 kts | 329° |
| 2026-05-09 21:25 | 33.27178 | 44.23920 | 138 ft | 26 kts | 328° |
| 2026-05-09 21:25 | 33.27296 | 44.23804 | 138 ft | 16 kts | 301° |
| 2026-05-09 21:25 | 33.27362 | 44.23693 | 138 ft | 17 kts | 304° |
| 2026-05-09 21:25 | 33.27417 | 44.23562 | 139 ft | 18 kts | 294° |
| 2026-05-09 21:26 | 33.27434 | 44.23414 | 140 ft | 19 kts | 250° |
| 2026-05-09 21:26 | 33.27366 | 44.23273 | 140 ft | 20 kts | 239° |
| 2026-05-09 21:26 | 33.27291 | 44.23123 | 140 ft | 22 kts | 239° |
| 2026-05-09 21:26 | 33.27209 | 44.22960 | 139 ft | 24 kts | 239° |
| 2026-05-09 21:27 | 33.27121 | 44.22781 | 139 ft | 26 kts | 239° |
| 2026-05-09 21:27 | 33.27031 | 44.22615 | 139 ft | 22 kts | 218° |
| 2026-05-09 21:27 | 33.27003 | 44.22616 | 139 ft | 3 kts | 143° |
| 2026-05-09 21:27 | 33.26989 | 44.22628 | 139 ft | 2 kts | 145° |
| 2026-05-09 21:28 | 33.26949 | 44.22646 | 139 ft | 9 kts | 168° |
| 2026-05-09 21:28 | 33.26890 | 44.22650 | 139 ft | 8 kts | 180° |
| 2026-05-09 21:28 | 33.26858 | 44.22650 | 139 ft | 0 kts | 179° |
| 2026-05-09 21:29 | 33.26854 | 44.22662 | 139 ft | 2 kts | 105° |
| 2026-05-09 21:29 | 33.26854 | 44.22665 | 139 ft | 0 kts | 94° |
| 2026-05-09 21:29 | 33.26847 | 44.22681 | 139 ft | 3 kts | 118° |
| 2026-05-09 21:29 | 33.26845 | 44.22697 | 139 ft | 2 kts | 91° |
| 2026-05-09 21:30 | 33.26843 | 44.22733 | 139 ft | 4 kts | 101° |
| 2026-05-09 21:30 | 33.26839 | 44.22754 | 139 ft | 0 kts | 99° |